sensor_id;sensor_type;location;lat;lon;timestamp;pressure;altitude;pressure_sealevel;temperature;humidity
10135;BME280;5107;48.850;8.924;2023-04-21T00:00:30;96410.19;;;4.06;100.00
10135;BME280;5107;48.850;8.924;2023-04-21T00:02:55;96414.31;;;4.09;100.00
10135;BME280;5107;48.850;8.924;2023-04-21T00:05:21;96412.38;;;4.01;99.41
10135;BME280;5107;48.850;8.924;2023-04-21T00:07:46;96409.50;;;4.04;100.00
10135;BME280;5107;48.850;8.924;2023-04-21T00:10:11;96409.09;;;3.99;100.00
10135;BME280;5107;48.850;8.924;2023-04-21T00:12:37;96404.28;;;3.95;99.92
10135;BME280;5107;48.850;8.924;2023-04-21T00:15:03;96407.44;;;3.98;100.00
10135;BME280;5107;48.850;8.924;2023-04-21T00:17:30;96404.13;;;3.87;100.00
10135;BME280;5107;48.850;8.924;2023-04-21T00:19:55;96402.94;;;4.00;100.00
10135;BME280;5107;48.850;8.924;2023-04-21T00:22:20;96400.84;;;4.23;99.44
10135;BME280;5107;48.850;8.924;2023-04-21T00:24:46;96400.59;;;4.16;99.72
10135;BME280;5107;48.850;8.924;2023-04-21T00:27:12;96397.56;;;4.21;100.00
10135;BME280;5107;48.850;8.924;2023-04-21T00:29:37;96400.84;;;4.23;99.61
10135;BME280;5107;48.850;8.924;2023-04-21T00:32:04;96395.09;;;4.19;100.00
10135;BME280;5107;48.850;8.924;2023-04-21T00:34:33;96392.50;;;4.19;99.46
10135;BME280;5107;48.850;8.924;2023-04-21T00:36:58;96394.44;;;4.08;99.13
10135;BME280;5107;48.850;8.924;2023-04-21T00:39:23;96390.44;;;4.04;99.58
10135;BME280;5107;48.850;8.924;2023-04-21T00:41:49;96396.06;;;4.18;99.19
10135;BME280;5107;48.850;8.924;2023-04-21T00:44:15;96388.94;;;4.11;98.88
10135;BME280;5107;48.850;8.924;2023-04-21T00:46:40;96385.38;;;4.12;99.45
10135;BME280;5107;48.850;8.924;2023-04-21T00:49:07;96382.91;;;4.10;99.82
10135;BME280;5107;48.850;8.924;2023-04-21T00:51:34;96377.56;;;4.02;99.74
10135;BME280;5107;48.850;8.924;2023-04-21T00:54:03;96378.00;;;4.07;100.00
10135;BME280;5107;48.850;8.924;2023-04-21T00:56:30;96376.34;;;4.06;100.00
10135;BME280;5107;48.850;8.924;2023-04-21T00:58:57;96379.47;;;4.19;100.00
10135;BME280;5107;48.850;8.924;2023-04-21T01:01:23;96379.47;;;4.29;98.75
10135;BME280;5107;48.850;8.924;2023-04-21T01:03:49;96387.00;;;4.23;99.05
10135;BME280;5107;48.850;8.924;2023-04-21T01:06:16;96387.56;;;4.16;97.98
10135;BME280;5107;48.850;8.924;2023-04-21T01:08:42;96385.25;;;4.04;97.75
10135;BME280;5107;48.850;8.924;2023-04-21T01:11:09;96384.56;;;3.92;98.25
10135;BME280;5107;48.850;8.924;2023-04-21T01:13:35;96387.19;;;3.92;99.24
10135;BME280;5107;48.850;8.924;2023-04-21T01:16:00;96385.91;;;3.87;98.73
10135;BME280;5107;48.850;8.924;2023-04-21T01:18:26;96378.53;;;3.82;99.24
10135;BME280;5107;48.850;8.924;2023-04-21T01:20:51;96385.09;;;3.86;99.46
10135;BME280;5107;48.850;8.924;2023-04-21T01:23:17;96382.91;;;3.81;99.58
10135;BME280;5107;48.850;8.924;2023-04-21T01:25:43;96372.91;;;3.77;99.78
10135;BME280;5107;48.850;8.924;2023-04-21T01:28:08;96376.88;;;3.71;99.95
10135;BME280;5107;48.850;8.924;2023-04-21T01:30:33;96375.53;;;3.67;100.00
10135;BME280;5107;48.850;8.924;2023-04-21T01:32:59;96368.38;;;3.69;100.00
10135;BME280;5107;48.850;8.924;2023-04-21T01:35:24;96378.13;;;3.67;100.00
10135;BME280;5107;48.850;8.924;2023-04-21T01:37:50;96375.38;;;3.59;99.92
10135;BME280;5107;48.850;8.924;2023-04-21T01:40:15;96383.69;;;3.53;99.54
10135;BME280;5107;48.850;8.924;2023-04-21T01:42:41;96376.72;;;3.54;100.00
10135;BME280;5107;48.850;8.924;2023-04-21T01:45:08;96377.97;;;3.59;100.00
10135;BME280;5107;48.850;8.924;2023-04-21T01:47:33;96383.75;;;3.82;100.00
10135;BME280;5107;48.850;8.924;2023-04-21T01:49:58;96385.38;;;4.22;98.17
10135;BME280;5107;48.850;8.924;2023-04-21T01:52:24;96382.63;;;4.33;96.57
10135;BME280;5107;48.850;8.924;2023-04-21T01:54:49;96381.25;;;4.29;96.85
10135;BME280;5107;48.850;8.924;2023-04-21T01:57:15;96383.34;;;4.15;96.13
10135;BME280;5107;48.850;8.924;2023-04-21T01:59:41;96383.59;;;4.12;96.93
10135;BME280;5107;48.850;8.924;2023-04-21T02:02:07;96379.22;;;4.13;96.84
10135;BME280;5107;48.850;8.924;2023-04-21T02:04:32;96387.56;;;4.07;96.69
10135;BME280;5107;48.850;8.924;2023-04-21T02:06:58;96389.63;;;4.03;97.31
10135;BME280;5107;48.850;8.924;2023-04-21T02:09:23;96383.75;;;4.01;97.61
10135;BME280;5107;48.850;8.924;2023-04-21T02:11:48;96391.97;;;4.06;97.48
10135;BME280;5107;48.850;8.924;2023-04-21T02:14:13;96388.97;;;4.01;97.74
10135;BME280;5107;48.850;8.924;2023-04-21T02:16:39;96386.50;;;4.09;97.25
10135;BME280;5107;48.850;8.924;2023-04-21T02:19:04;96389.91;;;4.10;95.38
10135;BME280;5107;48.850;8.924;2023-04-21T02:21:30;96385.53;;;3.91;95.87
10135;BME280;5107;48.850;8.924;2023-04-21T02:23:56;96374.97;;;3.83;96.37
10135;BME280;5107;48.850;8.924;2023-04-21T02:26:21;96380.84;;;3.85;97.55
10135;BME280;5107;48.850;8.924;2023-04-21T02:28:48;96377.97;;;3.78;97.17
10135;BME280;5107;48.850;8.924;2023-04-21T02:31:14;96379.38;;;3.83;96.74
10135;BME280;5107;48.850;8.924;2023-04-21T02:33:40;96383.31;;;3.77;96.32
10135;BME280;5107;48.850;8.924;2023-04-21T02:36:05;96375.25;;;3.80;96.23
10135;BME280;5107;48.850;8.924;2023-04-21T02:38:31;96382.63;;;3.94;95.84
10135;BME280;5107;48.850;8.924;2023-04-21T02:40:57;96380.59;;;4.07;95.04
10135;BME280;5107;48.850;8.924;2023-04-21T02:43:22;96387.03;;;4.03;94.15
10135;BME280;5107;48.850;8.924;2023-04-21T02:45:48;96376.34;;;4.06;94.55
10135;BME280;5107;48.850;8.924;2023-04-21T02:48:13;96381.81;;;3.94;94.17
10135;BME280;5107;48.850;8.924;2023-04-21T02:50:39;96371.00;;;3.89;94.96
10135;BME280;5107;48.850;8.924;2023-04-21T02:53:04;96375.94;;;3.82;95.59
10135;BME280;5107;48.850;8.924;2023-04-21T02:55:30;96370.59;;;3.74;95.90
10135;BME280;5107;48.850;8.924;2023-04-21T02:57:55;96373.19;;;3.64;96.14
10135;BME280;5107;48.850;8.924;2023-04-21T03:00:21;96376.63;;;3.65;96.38
10135;BME280;5107;48.850;8.924;2023-04-21T03:02:46;96374.69;;;3.57;95.53
10135;BME280;5107;48.850;8.924;2023-04-21T03:05:12;96380.78;;;3.37;95.77
10135;BME280;5107;48.850;8.924;2023-04-21T03:07:37;96387.91;;;3.25;95.94
10135;BME280;5107;48.850;8.924;2023-04-21T03:10:04;96386.50;;;3.21;96.72
10135;BME280;5107;48.850;8.924;2023-04-21T03:12:30;96378.13;;;3.08;97.28
10135;BME280;5107;48.850;8.924;2023-04-21T03:14:55;96382.88;;;3.03;97.95
10135;BME280;5107;48.850;8.924;2023-04-21T03:17:21;96384.28;;;3.07;98.44
10135;BME280;5107;48.850;8.924;2023-04-21T03:19:46;96370.22;;;3.10;98.48
10135;BME280;5107;48.850;8.924;2023-04-21T03:22:11;96360.78;;;3.09;98.48
10135;BME280;5107;48.850;8.924;2023-04-21T03:24:37;96358.72;;;3.12;98.12
10135;BME280;5107;48.850;8.924;2023-04-21T03:27:04;96360.63;;;3.10;97.74
10135;BME280;5107;48.850;8.924;2023-04-21T03:29:29;96360.50;;;3.12;97.96
10135;BME280;5107;48.850;8.924;2023-04-21T03:31:55;96356.25;;;3.01;97.33
10135;BME280;5107;48.850;8.924;2023-04-21T03:34:20;96358.97;;;2.99;97.61
10135;BME280;5107;48.850;8.924;2023-04-21T03:36:45;96367.75;;;3.08;97.01
10135;BME280;5107;48.850;8.924;2023-04-21T03:39:11;96369.22;;;3.01;96.34
10135;BME280;5107;48.850;8.924;2023-04-21T03:41:36;96364.97;;;3.00;96.89
10135;BME280;5107;48.850;8.924;2023-04-21T03:44:01;96377.53;;;2.95;96.81
10135;BME280;5107;48.850;8.924;2023-04-21T03:46:26;96364.34;;;2.77;97.19
10135;BME280;5107;48.850;8.924;2023-04-21T03:48:52;96356.88;;;2.84;97.78
10135;BME280;5107;48.850;8.924;2023-04-21T03:51:17;96353.72;;;2.90;98.04
10135;BME280;5107;48.850;8.924;2023-04-21T03:53:42;96369.72;;;2.95;97.63
10135;BME280;5107;48.850;8.924;2023-04-21T03:56:08;96369.16;;;2.82;97.30
10135;BME280;5107;48.850;8.924;2023-04-21T03:58:34;96370.88;;;2.72;97.64
10135;BME280;5107;48.850;8.924;2023-04-21T04:00:59;96361.28;;;2.93;98.85
10135;BME280;5107;48.850;8.924;2023-04-21T04:03:25;96358.56;;;3.04;97.92
10135;BME280;5107;48.850;8.924;2023-04-21T04:05:50;96355.78;;;2.96;97.70
10135;BME280;5107;48.850;8.924;2023-04-21T04:08:15;96363.50;;;3.07;98.22
10135;BME280;5107;48.850;8.924;2023-04-21T04:10:41;96354.44;;;2.92;97.50
10135;BME280;5107;48.850;8.924;2023-04-21T04:13:06;96357.81;;;2.83;98.14
10135;BME280;5107;48.850;8.924;2023-04-21T04:15:31;96363.97;;;2.82;97.80
10135;BME280;5107;48.850;8.924;2023-04-21T04:17:57;96361.72;;;2.67;97.78
10135;BME280;5107;48.850;8.924;2023-04-21T04:20:22;96356.41;;;2.79;97.72
10135;BME280;5107;48.850;8.924;2023-04-21T04:22:48;96360.56;;;2.91;96.52
10135;BME280;5107;48.850;8.924;2023-04-21T04:25:13;96352.13;;;2.98;96.62
10135;BME280;5107;48.850;8.924;2023-04-21T04:27:41;96361.66;;;2.88;96.49
10135;BME280;5107;48.850;8.924;2023-04-21T04:30:08;96366.84;;;2.88;97.31
10135;BME280;5107;48.850;8.924;2023-04-21T04:32:34;96369.66;;;3.06;97.10
10135;BME280;5107;48.850;8.924;2023-04-21T04:35:02;96362.00;;;3.14;96.63
10135;BME280;5107;48.850;8.924;2023-04-21T04:37:28;96367.03;;;3.06;95.49
10135;BME280;5107;48.850;8.924;2023-04-21T04:39:53;96372.63;;;2.92;96.40
10135;BME280;5107;48.850;8.924;2023-04-21T04:42:18;96378.59;;;2.83;96.47
10135;BME280;5107;48.850;8.924;2023-04-21T04:44:44;96372.75;;;2.90;97.60
10135;BME280;5107;48.850;8.924;2023-04-21T04:47:11;96374.56;;;2.99;97.97
10135;BME280;5107;48.850;8.924;2023-04-21T04:49:36;96379.94;;;3.17;97.91
10135;BME280;5107;48.850;8.924;2023-04-21T04:52:02;96382.41;;;3.28;95.22
10135;BME280;5107;48.850;8.924;2023-04-21T04:54:27;96384.38;;;3.46;94.84
10135;BME280;5107;48.850;8.924;2023-04-21T04:56:53;96389.06;;;3.61;94.58
10135;BME280;5107;48.850;8.924;2023-04-21T04:59:18;96385.25;;;3.65;93.78
10135;BME280;5107;48.850;8.924;2023-04-21T05:01:44;96377.03;;;3.79;93.02
10135;BME280;5107;48.850;8.924;2023-04-21T05:04:09;96378.25;;;3.85;92.93
10135;BME280;5107;48.850;8.924;2023-04-21T05:06:35;96384.28;;;3.86;92.94
10135;BME280;5107;48.850;8.924;2023-04-21T05:09:01;96380.72;;;3.77;93.14
10135;BME280;5107;48.850;8.924;2023-04-21T05:11:26;96396.31;;;3.77;94.52
10135;BME280;5107;48.850;8.924;2023-04-21T05:13:52;96392.75;;;3.78;94.23
10135;BME280;5107;48.850;8.924;2023-04-21T05:16:17;96394.97;;;3.92;92.35
10135;BME280;5107;48.850;8.924;2023-04-21T05:18:42;96391.44;;;3.93;92.72
10135;BME280;5107;48.850;8.924;2023-04-21T05:21:07;96400.72;;;4.05;92.49
10135;BME280;5107;48.850;8.924;2023-04-21T05:23:33;96404.72;;;4.09;93.02
10135;BME280;5107;48.850;8.924;2023-04-21T05:25:58;96402.38;;;4.16;92.22
10135;BME280;5107;48.850;8.924;2023-04-21T05:28:23;96411.00;;;4.16;92.69
10135;BME280;5107;48.850;8.924;2023-04-21T05:30:49;96413.63;;;4.16;93.79
10135;BME280;5107;48.850;8.924;2023-04-21T05:33:17;96427.44;;;4.17;93.72
10135;BME280;5107;48.850;8.924;2023-04-21T05:35:43;96425.13;;;4.24;94.63
10135;BME280;5107;48.850;8.924;2023-04-21T05:38:08;96415.09;;;4.38;95.26
10135;BME280;5107;48.850;8.924;2023-04-21T05:40:34;96414.50;;;4.54;94.14
10135;BME280;5107;48.850;8.924;2023-04-21T05:42:59;96417.31;;;4.89;94.15
10135;BME280;5107;48.850;8.924;2023-04-21T05:45:24;96416.63;;;5.24;91.43
10135;BME280;5107;48.850;8.924;2023-04-21T05:47:50;96424.69;;;5.31;88.80
10135;BME280;5107;48.850;8.924;2023-04-21T05:50:15;96428.56;;;5.54;88.77
10135;BME280;5107;48.850;8.924;2023-04-21T05:52:41;96425.22;;;6.07;87.93
10135;BME280;5107;48.850;8.924;2023-04-21T05:55:06;96418.72;;;6.46;84.88
10135;BME280;5107;48.850;8.924;2023-04-21T05:57:32;96423.09;;;6.64;84.54
10135;BME280;5107;48.850;8.924;2023-04-21T05:59:57;96425.66;;;6.56;84.34
10135;BME280;5107;48.850;8.924;2023-04-21T06:02:22;96424.47;;;6.32;83.22
10135;BME280;5107;48.850;8.924;2023-04-21T06:04:48;96428.34;;;6.28;84.26
10135;BME280;5107;48.850;8.924;2023-04-21T06:07:13;96419.56;;;6.12;85.12
10135;BME280;5107;48.850;8.924;2023-04-21T06:09:39;96416.22;;;6.01;86.23
10135;BME280;5107;48.850;8.924;2023-04-21T06:12:05;96422.25;;;6.02;86.43
10135;BME280;5107;48.850;8.924;2023-04-21T06:14:31;96419.47;;;6.03;86.45
10135;BME280;5107;48.850;8.924;2023-04-21T06:16:56;96416.03;;;6.03;86.43
10135;BME280;5107;48.850;8.924;2023-04-21T06:19:22;96413.53;;;5.93;86.29
10135;BME280;5107;48.850;8.924;2023-04-21T06:21:47;96411.22;;;6.08;86.76
10135;BME280;5107;48.850;8.924;2023-04-21T06:24:12;96407.25;;;6.22;87.12
10135;BME280;5107;48.850;8.924;2023-04-21T06:26:38;96398.84;;;6.54;87.54
10135;BME280;5107;48.850;8.924;2023-04-21T06:29:03;96394.19;;;6.65;84.44
10135;BME280;5107;48.850;8.924;2023-04-21T06:31:28;96393.72;;;6.96;84.13
10135;BME280;5107;48.850;8.924;2023-04-21T06:33:54;96395.47;;;7.21;83.28
10135;BME280;5107;48.850;8.924;2023-04-21T06:36:19;96394.91;;;7.01;83.64
10135;BME280;5107;48.850;8.924;2023-04-21T06:38:47;96407.31;;;6.99;84.39
10135;BME280;5107;48.850;8.924;2023-04-21T06:41:12;96406.88;;;7.12;84.52
10135;BME280;5107;48.850;8.924;2023-04-21T06:43:38;96411.69;;;7.24;84.91
10135;BME280;5107;48.850;8.924;2023-04-21T06:46:03;96406.00;;;7.37;84.33
10135;BME280;5107;48.850;8.924;2023-04-21T06:48:28;96412.63;;;7.49;83.50
10135;BME280;5107;48.850;8.924;2023-04-21T06:50:54;96407.22;;;7.51;83.62
10135;BME280;5107;48.850;8.924;2023-04-21T06:53:20;96402.34;;;7.64;84.47
10135;BME280;5107;48.850;8.924;2023-04-21T06:55:46;96403.84;;;7.75;84.53
10135;BME280;5107;48.850;8.924;2023-04-21T06:58:11;96399.78;;;7.88;84.04
10135;BME280;5107;48.850;8.924;2023-04-21T07:00:37;96396.22;;;8.06;83.84
10135;BME280;5107;48.850;8.924;2023-04-21T07:03:02;96390.97;;;8.06;83.45
10135;BME280;5107;48.850;8.924;2023-04-21T07:05:28;96392.31;;;8.74;82.65
10135;BME280;5107;48.850;8.924;2023-04-21T07:07:53;96380.09;;;9.14;80.09
10135;BME280;5107;48.850;8.924;2023-04-21T07:10:26;96387.94;;;9.92;75.72
10135;BME280;5107;48.850;8.924;2023-04-21T07:12:52;96390.91;;;9.89;76.93
10135;BME280;5107;48.850;8.924;2023-04-21T07:15:18;96393.22;;;10.60;73.88
10135;BME280;5107;48.850;8.924;2023-04-21T07:17:43;96383.28;;;11.15;70.22
10135;BME280;5107;48.850;8.924;2023-04-21T07:20:09;96395.03;;;11.27;69.58
10135;BME280;5107;48.850;8.924;2023-04-21T07:22:34;96381.06;;;11.92;66.88
10135;BME280;5107;48.850;8.924;2023-04-21T07:25:04;96392.72;;;11.83;68.24
10135;BME280;5107;48.850;8.924;2023-04-21T07:27:33;96394.47;;;11.75;68.36
10135;BME280;5107;48.850;8.924;2023-04-21T07:30:00;96397.03;;;11.54;69.30
10135;BME280;5107;48.850;8.924;2023-04-21T07:32:25;96395.22;;;11.11;69.86
10135;BME280;5107;48.850;8.924;2023-04-21T07:34:51;96387.72;;;10.70;72.99
10135;BME280;5107;48.850;8.924;2023-04-21T07:37:16;96392.53;;;10.21;73.39
10135;BME280;5107;48.850;8.924;2023-04-21T07:39:42;96392.84;;;9.95;74.19
10135;BME280;5107;48.850;8.924;2023-04-21T07:42:07;96383.72;;;9.83;74.61
10135;BME280;5107;48.850;8.924;2023-04-21T07:44:34;96391.59;;;9.83;76.13
10135;BME280;5107;48.850;8.924;2023-04-21T07:46:59;96390.06;;;9.66;74.64
10135;BME280;5107;48.850;8.924;2023-04-21T07:49:24;96387.22;;;9.44;74.79
10135;BME280;5107;48.850;8.924;2023-04-21T07:51:50;96386.44;;;9.28;76.41
10135;BME280;5107;48.850;8.924;2023-04-21T07:54:16;96386.66;;;9.18;76.56
10135;BME280;5107;48.850;8.924;2023-04-21T07:56:41;96380.50;;;9.34;75.87
10135;BME280;5107;48.850;8.924;2023-04-21T07:59:06;96377.84;;;9.42;75.16
10135;BME280;5107;48.850;8.924;2023-04-21T08:01:32;96388.53;;;9.40;75.15
10135;BME280;5107;48.850;8.924;2023-04-21T08:03:57;96385.28;;;9.30;76.60
10135;BME280;5107;48.850;8.924;2023-04-21T08:06:22;96383.78;;;9.36;77.66
10135;BME280;5107;48.850;8.924;2023-04-21T08:08:48;96371.41;;;9.52;76.98
10135;BME280;5107;48.850;8.924;2023-04-21T08:11:14;96382.94;;;9.74;75.76
10135;BME280;5107;48.850;8.924;2023-04-21T08:13:39;96383.94;;;10.50;70.87
10135;BME280;5107;48.850;8.924;2023-04-21T08:16:05;96382.03;;;11.11;72.37
10135;BME280;5107;48.850;8.924;2023-04-21T08:18:30;96384.50;;;11.27;68.64
10135;BME280;5107;48.850;8.924;2023-04-21T08:20:56;96373.63;;;11.81;67.56
10135;BME280;5107;48.850;8.924;2023-04-21T08:23:22;96367.53;;;12.16;65.10
10135;BME280;5107;48.850;8.924;2023-04-21T08:25:47;96362.13;;;12.03;66.34
10135;BME280;5107;48.850;8.924;2023-04-21T08:28:13;96358.09;;;12.49;65.76
10135;BME280;5107;48.850;8.924;2023-04-21T08:30:40;96358.81;;;12.92;63.47
10135;BME280;5107;48.850;8.924;2023-04-21T08:33:06;96363.16;;;13.07;64.13
10135;BME280;5107;48.850;8.924;2023-04-21T08:35:32;96348.56;;;13.11;62.51
10135;BME280;5107;48.850;8.924;2023-04-21T08:37:58;96362.56;;;13.39;62.39
10135;BME280;5107;48.850;8.924;2023-04-21T08:40:33;96354.25;;;13.42;61.57
10135;BME280;5107;48.850;8.924;2023-04-21T08:42:58;96355.22;;;13.76;62.57
10135;BME280;5107;48.850;8.924;2023-04-21T08:45:24;96351.63;;;13.96;60.67
10135;BME280;5107;48.850;8.924;2023-04-21T08:47:51;96348.00;;;14.24;60.70
10135;BME280;5107;48.850;8.924;2023-04-21T08:50:18;96347.78;;;14.05;58.71
10135;BME280;5107;48.850;8.924;2023-04-21T08:52:44;96353.91;;;14.32;61.35
10135;BME280;5107;48.850;8.924;2023-04-21T08:55:10;96351.50;;;14.31;60.66
10135;BME280;5107;48.850;8.924;2023-04-21T08:57:35;96349.81;;;14.10;60.75
10135;BME280;5107;48.850;8.924;2023-04-21T09:00:01;96360.06;;;14.39;61.44
10135;BME280;5107;48.850;8.924;2023-04-21T09:02:26;96367.84;;;14.48;59.91
10135;BME280;5107;48.850;8.924;2023-04-21T09:04:51;96354.78;;;14.46;58.78
10135;BME280;5107;48.850;8.924;2023-04-21T09:07:33;96352.34;;;14.51;58.66
10135;BME280;5107;48.850;8.924;2023-04-21T09:09:59;96347.00;;;14.38;60.06
10135;BME280;5107;48.850;8.924;2023-04-21T09:12:25;96354.38;;;14.56;61.23
10135;BME280;5107;48.850;8.924;2023-04-21T09:14:51;96352.56;;;14.63;61.11
10135;BME280;5107;48.850;8.924;2023-04-21T09:17:19;96350.28;;;14.66;57.89
10135;BME280;5107;48.850;8.924;2023-04-21T09:19:44;96343.75;;;14.29;59.10
10135;BME280;5107;48.850;8.924;2023-04-21T09:22:16;96347.44;;;14.48;60.39
10135;BME280;5107;48.850;8.924;2023-04-21T09:24:56;96342.13;;;14.48;60.17
10135;BME280;5107;48.850;8.924;2023-04-21T09:27:22;96346.22;;;14.77;59.96
10135;BME280;5107;48.850;8.924;2023-04-21T09:29:47;96347.84;;;14.91;59.71
10135;BME280;5107;48.850;8.924;2023-04-21T09:32:17;96338.91;;;14.59;59.17
10135;BME280;5107;48.850;8.924;2023-04-21T09:34:44;96338.69;;;14.61;60.33
10135;BME280;5107;48.850;8.924;2023-04-21T09:37:10;96346.22;;;14.84;61.02
10135;BME280;5107;48.850;8.924;2023-04-21T09:39:36;96341.72;;;15.04;59.30
10135;BME280;5107;48.850;8.924;2023-04-21T09:42:01;96342.16;;;14.74;60.39
10135;BME280;5107;48.850;8.924;2023-04-21T09:44:27;96348.03;;;14.83;62.39
10135;BME280;5107;48.850;8.924;2023-04-21T09:47:00;96350.25;;;15.19;59.62
10135;BME280;5107;48.850;8.924;2023-04-21T09:49:30;96337.91;;;15.51;59.01
10135;BME280;5107;48.850;8.924;2023-04-21T09:51:58;96335.47;;;15.49;58.55
10135;BME280;5107;48.850;8.924;2023-04-21T09:54:29;96342.94;;;15.14;62.57
10135;BME280;5107;48.850;8.924;2023-04-21T09:56:58;96339.38;;;15.34;59.67
10135;BME280;5107;48.850;8.924;2023-04-21T09:59:34;96335.91;;;15.40;58.76
10135;BME280;5107;48.850;8.924;2023-04-21T10:02:00;96327.53;;;15.94;58.40
10135;BME280;5107;48.850;8.924;2023-04-21T10:04:30;96318.84;;;15.80;57.74
10135;BME280;5107;48.850;8.924;2023-04-21T10:06:59;96320.06;;;15.78;56.49
10135;BME280;5107;48.850;8.924;2023-04-21T10:09:32;96319.94;;;16.04;57.80
10135;BME280;5107;48.850;8.924;2023-04-21T10:12:01;96312.28;;;16.21;56.67
10135;BME280;5107;48.850;8.924;2023-04-21T10:14:27;96306.41;;;15.81;57.13
10135;BME280;5107;48.850;8.924;2023-04-21T10:16:56;96314.53;;;15.86;60.23
10135;BME280;5107;48.850;8.924;2023-04-21T10:19:26;96311.34;;;15.71;59.25
10135;BME280;5107;48.850;8.924;2023-04-21T10:21:55;96304.81;;;15.67;58.63
10135;BME280;5107;48.850;8.924;2023-04-21T10:24:22;96304.69;;;15.55;58.30
10135;BME280;5107;48.850;8.924;2023-04-21T10:26:49;96312.00;;;15.53;58.66
10135;BME280;5107;48.850;8.924;2023-04-21T10:29:14;96313.22;;;15.50;58.72
10135;BME280;5107;48.850;8.924;2023-04-21T10:39:28;96305.28;;;15.95;58.10
10135;BME280;5107;48.850;8.924;2023-04-21T10:41:56;96305.72;;;16.23;59.72
10135;BME280;5107;48.850;8.924;2023-04-21T10:44:22;96303.50;;;16.20;57.53
10135;BME280;5107;48.850;8.924;2023-04-21T10:46:50;96303.94;;;16.42;57.21
10135;BME280;5107;48.850;8.924;2023-04-21T10:52:10;96295.00;;;16.37;58.10
10135;BME280;5107;48.850;8.924;2023-04-21T10:57:18;96292.41;;;16.55;58.10
10135;BME280;5107;48.850;8.924;2023-04-21T10:59:45;96291.13;;;16.57;55.77
10135;BME280;5107;48.850;8.924;2023-04-21T11:02:15;96286.63;;;16.33;57.02
10135;BME280;5107;48.850;8.924;2023-04-21T11:04:41;96288.84;;;16.11;58.69
10135;BME280;5107;48.850;8.924;2023-04-21T11:07:24;96287.50;;;16.27;60.50
10135;BME280;5107;48.850;8.924;2023-04-21T11:10:19;96278.31;;;16.54;59.14
10135;BME280;5107;48.850;8.924;2023-04-21T11:12:44;96278.09;;;16.56;56.36
10135;BME280;5107;48.850;8.924;2023-04-21T11:15:11;96282.41;;;16.75;56.17
10135;BME280;5107;48.850;8.924;2023-04-21T11:17:38;96280.41;;;17.14;56.17
10135;BME280;5107;48.850;8.924;2023-04-21T11:20:08;96289.03;;;17.45;56.01
10135;BME280;5107;48.850;8.924;2023-04-21T11:22:35;96280.53;;;17.00;55.39
10135;BME280;5107;48.850;8.924;2023-04-21T11:25:01;96287.44;;;16.83;56.38
10135;BME280;5107;48.850;8.924;2023-04-21T11:27:28;96281.09;;;16.84;55.97
10135;BME280;5107;48.850;8.924;2023-04-21T11:29:56;96286.09;;;16.74;56.55
10135;BME280;5107;48.850;8.924;2023-04-21T11:32:22;96277.09;;;16.75;56.69
10135;BME280;5107;48.850;8.924;2023-04-21T11:34:48;96269.69;;;17.02;56.38
10135;BME280;5107;48.850;8.924;2023-04-21T11:37:22;96282.53;;;17.05;55.53
10135;BME280;5107;48.850;8.924;2023-04-21T11:39:47;96274.19;;;17.20;56.58
10135;BME280;5107;48.850;8.924;2023-04-21T11:42:19;96257.94;;;16.73;56.13
10135;BME280;5107;48.850;8.924;2023-04-21T11:44:45;96269.38;;;16.92;57.25
10135;BME280;5107;48.850;8.924;2023-04-21T11:47:14;96261.66;;;16.65;56.67
10135;BME280;5107;48.850;8.924;2023-04-21T11:49:53;96272.72;;;17.05;56.46
10135;BME280;5107;48.850;8.924;2023-04-21T11:55:01;96274.97;;;16.09;58.18
10135;BME280;5107;48.850;8.924;2023-04-21T11:57:28;96266.41;;;16.32;59.60
10135;BME280;5107;48.850;8.924;2023-04-21T12:00:03;96274.94;;;16.65;58.68
10135;BME280;5107;48.850;8.924;2023-04-21T12:02:31;96266.22;;;17.01;59.04
10135;BME280;5107;48.850;8.924;2023-04-21T12:05:00;96260.06;;;17.37;58.12
10135;BME280;5107;48.850;8.924;2023-04-21T12:07:29;96266.25;;;17.68;55.67
10135;BME280;5107;48.850;8.924;2023-04-21T12:09:55;96260.47;;;18.01;55.73
10135;BME280;5107;48.850;8.924;2023-04-21T12:12:21;96255.59;;;18.39;53.35
10135;BME280;5107;48.850;8.924;2023-04-21T12:14:48;96249.91;;;18.24;53.91
10135;BME280;5107;48.850;8.924;2023-04-21T12:17:14;96248.94;;;18.07;53.74
10135;BME280;5107;48.850;8.924;2023-04-21T12:19:40;96248.25;;;18.23;55.31
10135;BME280;5107;48.850;8.924;2023-04-21T12:22:11;96243.94;;;17.99;55.58
10135;BME280;5107;48.850;8.924;2023-04-21T12:24:37;96239.97;;;18.01;54.97
10135;BME280;5107;48.850;8.924;2023-04-21T12:27:03;96240.13;;;18.18;54.63
10135;BME280;5107;48.850;8.924;2023-04-21T12:29:29;96240.28;;;18.46;54.45
10135;BME280;5107;48.850;8.924;2023-04-21T12:31:54;96235.50;;;18.25;53.27
10135;BME280;5107;48.850;8.924;2023-04-21T12:34:20;96240.75;;;18.32;50.85
10135;BME280;5107;48.850;8.924;2023-04-21T12:36:45;96236.34;;;18.37;51.73
10135;BME280;5107;48.850;8.924;2023-04-21T12:39:10;96234.38;;;18.33;52.33
10135;BME280;5107;48.850;8.924;2023-04-21T12:41:37;96236.09;;;18.15;52.04
10135;BME280;5107;48.850;8.924;2023-04-21T12:44:03;96235.16;;;18.22;52.08
10135;BME280;5107;48.850;8.924;2023-04-21T12:46:28;96229.16;;;18.14;52.99
10135;BME280;5107;48.850;8.924;2023-04-21T12:48:56;96222.84;;;18.09;52.83
10135;BME280;5107;48.850;8.924;2023-04-21T12:51:22;96229.75;;;17.87;53.83
10135;BME280;5107;48.850;8.924;2023-04-21T12:53:48;96223.94;;;17.78;53.91
10135;BME280;5107;48.850;8.924;2023-04-21T12:56:13;96224.81;;;17.90;53.57
10135;BME280;5107;48.850;8.924;2023-04-21T12:58:39;96223.28;;;17.94;53.20
10135;BME280;5107;48.850;8.924;2023-04-21T13:01:04;96218.72;;;18.25;53.69
10135;BME280;5107;48.850;8.924;2023-04-21T13:03:30;96217.94;;;18.24;52.83
10135;BME280;5107;48.850;8.924;2023-04-21T13:05:56;96217.53;;;18.09;52.92
10135;BME280;5107;48.850;8.924;2023-04-21T13:08:21;96211.44;;;17.78;53.47
10135;BME280;5107;48.850;8.924;2023-04-21T13:10:47;96216.72;;;17.97;53.31
10135;BME280;5107;48.850;8.924;2023-04-21T13:13:12;96213.06;;;18.33;52.90
10135;BME280;5107;48.850;8.924;2023-04-21T13:15:37;96203.72;;;18.65;51.98
10135;BME280;5107;48.850;8.924;2023-04-21T13:18:03;96204.25;;;18.55;50.00
10135;BME280;5107;48.850;8.924;2023-04-21T13:20:28;96210.69;;;18.66;48.72
10135;BME280;5107;48.850;8.924;2023-04-21T13:22:54;96217.47;;;18.97;48.98
10135;BME280;5107;48.850;8.924;2023-04-21T13:25:20;96204.97;;;18.86;49.57
10135;BME280;5107;48.850;8.924;2023-04-21T13:27:45;96211.31;;;18.85;49.75